DLH3F LFPG-EDDF
Flight info
| Callsign | DLH3F |
|---|---|
| Flight time | 0h 43m |
| Altitude | 22000 |
| Route | RANUX DCT VALEK DCT LIPNI UN858 LIMGO Z111 RAMOB IMCOM1D |
| Aircraft | A319/M-SDE3FGHIRWY/LB1 |
Departure
| Time | 2026-05-08 12:40 |
|---|---|
| Airport | Charles de Gaulle International Airport (LFPG) |
Arrival
| Time | 2026-05-08 13:23 |
|---|---|
| Airport | Frankfurt Main Airport (EDDF) |
| Time | Latitude | Longitude | Altitude | Speed | Heading |
|---|---|---|---|---|---|
| 2026-05-08 12:18 | 49.01721 | 2.54181 | 360 ft | 0 kts | 228° |
| 2026-05-08 12:31 | 49.01736 | 2.54206 | 364 ft | 4 kts | 225° |
| 2026-05-08 12:31 | 49.01756 | 2.54234 | 363 ft | 4 kts | 221° |
| 2026-05-08 12:31 | 49.01776 | 2.54260 | 363 ft | 4 kts | 220° |
| 2026-05-08 12:31 | 49.01796 | 2.54288 | 361 ft | 4 kts | 234° |
| 2026-05-08 12:32 | 49.01804 | 2.54316 | 359 ft | 1 kts | 285° |
| 2026-05-08 12:32 | 49.01804 | 2.54317 | 359 ft | 0 kts | 285° |
| 2026-05-08 12:34 | 49.01804 | 2.54313 | 359 ft | 1 kts | 285° |
| 2026-05-08 12:34 | 49.01809 | 2.54278 | 359 ft | 8 kts | 278° |
| 2026-05-08 12:34 | 49.01811 | 2.54154 | 358 ft | 14 kts | 265° |
| 2026-05-08 12:34 | 49.01803 | 2.54004 | 355 ft | 14 kts | 265° |
| 2026-05-08 12:35 | 49.01795 | 2.53848 | 355 ft | 15 kts | 265° |
| 2026-05-08 12:35 | 49.01786 | 2.53684 | 361 ft | 16 kts | 265° |
| 2026-05-08 12:35 | 49.01777 | 2.53516 | 355 ft | 16 kts | 265° |
| 2026-05-08 12:35 | 49.01767 | 2.53349 | 356 ft | 16 kts | 264° |
| 2026-05-08 12:36 | 49.01757 | 2.53172 | 362 ft | 17 kts | 265° |
| 2026-05-08 12:36 | 49.01748 | 2.52994 | 356 ft | 17 kts | 266° |
| 2026-05-08 12:36 | 49.01739 | 2.52808 | 359 ft | 18 kts | 265° |
| 2026-05-08 12:36 | 49.01728 | 2.52616 | 363 ft | 18 kts | 265° |
| 2026-05-08 12:37 | 49.01719 | 2.52418 | 374 ft | 19 kts | 267° |
| 2026-05-08 12:37 | 49.01713 | 2.52218 | 356 ft | 19 kts | 267° |
| 2026-05-08 12:37 | 49.01802 | 2.52134 | 362 ft | 18 kts | 356° |
| 2026-05-08 12:37 | 49.01926 | 2.52118 | 358 ft | 14 kts | 356° |
| 2026-05-08 12:38 | 49.01988 | 2.52111 | 355 ft | 7 kts | 355° |
| 2026-05-08 12:38 | 49.02008 | 2.52109 | 355 ft | 0 kts | 356° |
| 2026-05-08 12:39 | 49.02015 | 2.52108 | 355 ft | 3 kts | 356° |
| 2026-05-08 12:39 | 49.02073 | 2.52113 | 354 ft | 12 kts | 20° |
| 2026-05-08 12:40 | 49.02115 | 2.52270 | 353 ft | 31 kts | 84° |
| 2026-05-08 12:40 | 49.02156 | 2.53020 | 356 ft | 108 kts | 85° |
| 2026-05-08 12:40 | 49.02238 | 2.54481 | 396 ft | 161 kts | 84° |
| 2026-05-08 12:40 | 49.02329 | 2.56136 | 1126 ft | 155 kts | 85° |
| 2026-05-08 12:41 | 49.02409 | 2.57790 | 1847 ft | 162 kts | 85° |
| 2026-05-08 12:41 | 49.02468 | 2.58969 | 2153 ft | 174 kts | 85° |
| 2026-05-08 12:41 | 49.02572 | 2.60912 | 2622 ft | 195 kts | 85° |
| 2026-05-08 12:41 | 49.02687 | 2.63142 | 3033 ft | 224 kts | 85° |
| 2026-05-08 12:42 | 49.02817 | 2.65636 | 3646 ft | 247 kts | 85° |
| 2026-05-08 12:42 | 49.02966 | 2.68337 | 4404 ft | 263 kts | 85° |
| 2026-05-08 12:42 | 49.03130 | 2.71177 | 5314 ft | 270 kts | 85° |
| 2026-05-08 12:42 | 49.03279 | 2.74025 | 6473 ft | 271 kts | 85° |
| 2026-05-08 12:43 | 49.03415 | 2.76881 | 7414 ft | 276 kts | 86° |
| 2026-05-08 12:43 | 49.03554 | 2.79839 | 8346 ft | 283 kts | 86° |
| 2026-05-08 12:43 | 49.03693 | 2.82874 | 8883 ft | 290 kts | 86° |
| 2026-05-08 12:43 | 49.03833 | 2.85950 | 9040 ft | 290 kts | 87° |
| 2026-05-08 12:44 | 49.03977 | 2.89062 | 9643 ft | 296 kts | 86° |
| 2026-05-08 12:44 | 49.04127 | 2.92223 | 10494 ft | 307 kts | 86° |
| 2026-05-08 12:44 | 49.04307 | 2.95546 | 10848 ft | 331 kts | 85° |
| 2026-05-08 12:44 | 49.04558 | 2.99144 | 11322 ft | 348 kts | 84° |
| 2026-05-08 12:45 | 49.04845 | 3.02847 | 12077 ft | 355 kts | 84° |
| 2026-05-08 12:45 | 49.05145 | 3.06621 | 12888 ft | 360 kts | 84° |
| 2026-05-08 12:45 | 49.05445 | 3.10446 | 13693 ft | 365 kts | 84° |
| 2026-05-08 12:45 | 49.05739 | 3.14314 | 14429 ft | 369 kts | 85° |
| 2026-05-08 12:46 | 49.06027 | 3.18235 | 15142 ft | 374 kts | 85° |
| 2026-05-08 12:46 | 49.06311 | 3.22196 | 15850 ft | 378 kts | 85° |
| 2026-05-08 12:46 | 49.06597 | 3.26224 | 16556 ft | 382 kts | 85° |
| 2026-05-08 12:46 | 49.06886 | 3.30284 | 17253 ft | 387 kts | 85° |
| 2026-05-08 12:47 | 49.07174 | 3.34333 | 17934 ft | 391 kts | 85° |
| 2026-05-08 12:47 | 49.07467 | 3.38490 | 18596 ft | 395 kts | 85° |
| 2026-05-08 12:47 | 49.07760 | 3.42682 | 18952 ft | 398 kts | 85° |
| 2026-05-08 12:47 | 49.08050 | 3.46897 | 19052 ft | 398 kts | 85° |
| 2026-05-08 12:48 | 49.08337 | 3.51106 | 19073 ft | 398 kts | 85° |
| 2026-05-08 12:48 | 49.08625 | 3.55315 | 19065 ft | 398 kts | 85° |
| 2026-05-08 12:48 | 49.08910 | 3.59469 | 19069 ft | 399 kts | 85° |
| 2026-05-08 12:48 | 49.09199 | 3.63680 | 19070 ft | 399 kts | 85° |
| 2026-05-08 12:49 | 49.09488 | 3.67890 | 19072 ft | 399 kts | 85° |
| 2026-05-08 12:49 | 49.09772 | 3.72104 | 19072 ft | 399 kts | 85° |
| 2026-05-08 12:49 | 49.10054 | 3.76320 | 19069 ft | 399 kts | 85° |
| 2026-05-08 12:49 | 49.10333 | 3.80536 | 19066 ft | 399 kts | 85° |
| 2026-05-08 12:50 | 49.10610 | 3.84757 | 19064 ft | 399 kts | 85° |
| 2026-05-08 12:50 | 49.10885 | 3.88993 | 19408 ft | 403 kts | 85° |
| 2026-05-08 12:50 | 49.11157 | 3.93204 | 20090 ft | 405 kts | 85° |
| 2026-05-08 12:50 | 49.11434 | 3.97506 | 20731 ft | 408 kts | 85° |
| 2026-05-08 12:51 | 49.11712 | 4.01845 | 21358 ft | 412 kts | 85° |
| 2026-05-08 12:51 | 49.12277 | 4.10627 | 22031 ft | 418 kts | 85° |
| 2026-05-08 12:51 | 49.12560 | 4.15073 | 22059 ft | 431 kts | 85° |
| 2026-05-08 12:52 | 49.12849 | 4.19656 | 22053 ft | 434 kts | 85° |
| 2026-05-08 12:52 | 49.13428 | 4.28883 | 22059 ft | 435 kts | 85° |
| 2026-05-08 12:52 | 49.13745 | 4.33435 | 22058 ft | 436 kts | 82° |
| 2026-05-08 12:53 | 49.14436 | 4.37949 | 22062 ft | 437 kts | 72° |
| 2026-05-08 12:53 | 49.15537 | 4.42268 | 22056 ft | 437 kts | 68° |
| 2026-05-08 12:53 | 49.16717 | 4.46577 | 22066 ft | 439 kts | 68° |
| 2026-05-08 12:53 | 49.17893 | 4.50891 | 22066 ft | 439 kts | 68° |
| 2026-05-08 12:54 | 49.19065 | 4.55212 | 22068 ft | 439 kts | 68° |
| 2026-05-08 12:54 | 49.20222 | 4.59486 | 22070 ft | 439 kts | 68° |
| 2026-05-08 12:54 | 49.21390 | 4.63810 | 22081 ft | 439 kts | 68° |
| 2026-05-08 12:54 | 49.22553 | 4.68129 | 22087 ft | 438 kts | 68° |
| 2026-05-08 12:55 | 49.23712 | 4.72449 | 22085 ft | 438 kts | 68° |
| 2026-05-08 12:55 | 49.24867 | 4.76763 | 22083 ft | 437 kts | 68° |
| 2026-05-08 12:55 | 49.26023 | 4.81075 | 22087 ft | 437 kts | 68° |
| 2026-05-08 12:55 | 49.27166 | 4.85348 | 22086 ft | 437 kts | 68° |
| 2026-05-08 12:56 | 49.28314 | 4.89664 | 22077 ft | 437 kts | 68° |
| 2026-05-08 12:56 | 49.29459 | 4.93978 | 22070 ft | 437 kts | 68° |
| 2026-05-08 12:56 | 49.30609 | 4.98300 | 22069 ft | 437 kts | 68° |
| 2026-05-08 12:56 | 49.31744 | 5.02572 | 22067 ft | 438 kts | 68° |
| 2026-05-08 12:57 | 49.32898 | 5.06915 | 22069 ft | 438 kts | 68° |
| 2026-05-08 12:57 | 49.34045 | 5.11253 | 22069 ft | 438 kts | 68° |
| 2026-05-08 12:57 | 49.35182 | 5.15559 | 22068 ft | 438 kts | 69° |
| 2026-05-08 12:57 | 49.36324 | 5.19894 | 22069 ft | 438 kts | 69° |
| 2026-05-08 12:58 | 49.37470 | 5.24250 | 22069 ft | 438 kts | 69° |
| 2026-05-08 12:58 | 49.38608 | 5.28585 | 22070 ft | 438 kts | 69° |
| 2026-05-08 12:58 | 49.39731 | 5.32878 | 22071 ft | 438 kts | 69° |
| 2026-05-08 12:58 | 49.40866 | 5.37225 | 22069 ft | 438 kts | 69° |
| 2026-05-08 12:59 | 49.42001 | 5.41581 | 22072 ft | 438 kts | 69° |
| 2026-05-08 12:59 | 49.43137 | 5.45940 | 22073 ft | 438 kts | 69° |
| 2026-05-08 12:59 | 49.44266 | 5.50283 | 22074 ft | 438 kts | 69° |
| 2026-05-08 12:59 | 49.45397 | 5.54637 | 22075 ft | 438 kts | 69° |
| 2026-05-08 13:00 | 49.46525 | 5.58996 | 22074 ft | 438 kts | 69° |
| 2026-05-08 13:00 | 49.47651 | 5.63353 | 22078 ft | 438 kts | 69° |
| 2026-05-08 13:00 | 49.48763 | 5.67664 | 22078 ft | 438 kts | 69° |
| 2026-05-08 13:00 | 49.49885 | 5.72025 | 22079 ft | 438 kts | 69° |
| 2026-05-08 13:01 | 49.51004 | 5.76384 | 22080 ft | 438 kts | 69° |
| 2026-05-08 13:01 | 49.52118 | 5.80759 | 22081 ft | 438 kts | 70° |
| 2026-05-08 13:01 | 49.53194 | 5.85141 | 22071 ft | 438 kts | 70° |
| 2026-05-08 13:01 | 49.54258 | 5.89543 | 22070 ft | 438 kts | 70° |
| 2026-05-08 13:02 | 49.55326 | 5.93938 | 22071 ft | 438 kts | 70° |
| 2026-05-08 13:02 | 49.56401 | 5.98336 | 22069 ft | 438 kts | 70° |
| 2026-05-08 13:02 | 49.57481 | 6.02741 | 22070 ft | 438 kts | 70° |
| 2026-05-08 13:02 | 49.58550 | 6.07088 | 22070 ft | 438 kts | 70° |
| 2026-05-08 13:03 | 49.59631 | 6.11475 | 22075 ft | 438 kts | 70° |
| 2026-05-08 13:03 | 49.60725 | 6.15912 | 22079 ft | 438 kts | 70° |
| 2026-05-08 13:03 | 49.61790 | 6.20247 | 22081 ft | 438 kts | 70° |
| 2026-05-08 13:03 | 49.62877 | 6.24693 | 22080 ft | 437 kts | 70° |
| 2026-05-08 13:04 | 49.64086 | 6.28939 | 22080 ft | 438 kts | 62° |
| 2026-05-08 13:04 | 49.65526 | 6.33078 | 22074 ft | 438 kts | 62° |
| 2026-05-08 13:04 | 49.66962 | 6.37221 | 22072 ft | 438 kts | 62° |
| 2026-05-08 13:04 | 49.68402 | 6.41385 | 22073 ft | 438 kts | 62° |
| 2026-05-08 13:05 | 49.69837 | 6.45546 | 22074 ft | 438 kts | 62° |
| 2026-05-08 13:05 | 49.71268 | 6.49705 | 22076 ft | 438 kts | 62° |
| 2026-05-08 13:05 | 49.72697 | 6.53873 | 22077 ft | 438 kts | 63° |
| 2026-05-08 13:05 | 49.74121 | 6.58039 | 22081 ft | 438 kts | 63° |
| 2026-05-08 13:06 | 49.75532 | 6.62165 | 22079 ft | 438 kts | 63° |
| 2026-05-08 13:06 | 49.76957 | 6.66338 | 22078 ft | 438 kts | 63° |
| 2026-05-08 13:06 | 49.78383 | 6.70510 | 22084 ft | 438 kts | 63° |
| 2026-05-08 13:06 | 49.79807 | 6.74674 | 22088 ft | 438 kts | 63° |
| 2026-05-08 13:07 | 49.81229 | 6.78846 | 22047 ft | 436 kts | 63° |
| 2026-05-08 13:07 | 49.82634 | 6.82980 | 21766 ft | 432 kts | 63° |
| 2026-05-08 13:07 | 49.84028 | 6.87093 | 21503 ft | 430 kts | 63° |
| 2026-05-08 13:07 | 49.85527 | 6.91523 | 21221 ft | 428 kts | 63° |
| 2026-05-08 13:08 | 49.86906 | 6.95609 | 20963 ft | 426 kts | 63° |
| 2026-05-08 13:08 | 49.88275 | 6.99670 | 20706 ft | 424 kts | 63° |
| 2026-05-08 13:08 | 49.89638 | 7.03717 | 20452 ft | 422 kts | 63° |
| 2026-05-08 13:08 | 49.90996 | 7.07749 | 20155 ft | 418 kts | 63° |
| 2026-05-08 13:09 | 49.92337 | 7.11739 | 19622 ft | 414 kts | 63° |
| 2026-05-08 13:09 | 49.93647 | 7.15635 | 19094 ft | 412 kts | 63° |
| 2026-05-08 13:09 | 49.94965 | 7.19566 | 18565 ft | 409 kts | 63° |
| 2026-05-08 13:09 | 49.96273 | 7.23477 | 17996 ft | 406 kts | 63° |
| 2026-05-08 13:10 | 49.97575 | 7.27376 | 17457 ft | 402 kts | 63° |
| 2026-05-08 13:10 | 49.98855 | 7.31221 | 16924 ft | 398 kts | 63° |
| 2026-05-08 13:10 | 50.00117 | 7.35017 | 16381 ft | 394 kts | 63° |
| 2026-05-08 13:10 | 50.01376 | 7.38799 | 15837 ft | 391 kts | 62° |
| 2026-05-08 13:11 | 50.02610 | 7.42505 | 15277 ft | 389 kts | 62° |
| 2026-05-08 13:11 | 50.03847 | 7.46231 | 14709 ft | 387 kts | 62° |
| 2026-05-08 13:11 | 50.05077 | 7.49945 | 14134 ft | 384 kts | 62° |
| 2026-05-08 13:11 | 50.06299 | 7.53648 | 13497 ft | 382 kts | 62° |
| 2026-05-08 13:12 | 50.07505 | 7.57313 | 12906 ft | 379 kts | 63° |
| 2026-05-08 13:12 | 50.08298 | 7.59724 | 12507 ft | 376 kts | 63° |
| 2026-05-08 13:12 | 50.09437 | 7.63386 | 11885 ft | 373 kts | 69° |
| 2026-05-08 13:12 | 50.10074 | 7.68568 | 11141 ft | 366 kts | 94° |
| 2026-05-08 13:13 | 50.09517 | 7.72375 | 10581 ft | 359 kts | 115° |
| 2026-05-08 13:13 | 50.08666 | 7.74548 | 10392 ft | 348 kts | 130° |
| 2026-05-08 13:13 | 50.07129 | 7.77339 | 10274 ft | 331 kts | 133° |
| 2026-05-08 13:13 | 50.05636 | 7.79964 | 10146 ft | 318 kts | 134° |
| 2026-05-08 13:14 | 50.04197 | 7.82484 | 10022 ft | 305 kts | 134° |
| 2026-05-08 13:14 | 50.02810 | 7.84917 | 9864 ft | 295 kts | 134° |
| 2026-05-08 13:14 | 50.01457 | 7.87287 | 9564 ft | 290 kts | 134° |
| 2026-05-08 13:14 | 50.00112 | 7.89632 | 9077 ft | 292 kts | 133° |
| 2026-05-08 13:15 | 49.98742 | 7.91994 | 8505 ft | 296 kts | 133° |
| 2026-05-08 13:15 | 49.97356 | 7.94358 | 8004 ft | 292 kts | 134° |
| 2026-05-08 13:15 | 49.96020 | 7.96632 | 7601 ft | 280 kts | 133° |
| 2026-05-08 13:15 | 49.94737 | 7.98818 | 7056 ft | 274 kts | 131° |
| 2026-05-08 13:16 | 49.93845 | 8.01402 | 6469 ft | 271 kts | 104° |
| 2026-05-08 13:16 | 49.93610 | 8.04293 | 5833 ft | 269 kts | 94° |
| 2026-05-08 13:16 | 49.93490 | 8.07195 | 5198 ft | 266 kts | 94° |
| 2026-05-08 13:16 | 49.93376 | 8.10009 | 4749 ft | 257 kts | 94° |
| 2026-05-08 13:17 | 49.93269 | 8.12665 | 4610 ft | 236 kts | 93° |
| 2026-05-08 13:17 | 49.93466 | 8.15066 | 4474 ft | 216 kts | 70° |
| 2026-05-08 13:17 | 49.93982 | 8.17159 | 4344 ft | 201 kts | 69° |
| 2026-05-08 13:17 | 49.94465 | 8.19123 | 4225 ft | 187 kts | 69° |
| 2026-05-08 13:18 | 49.94907 | 8.20933 | 4128 ft | 179 kts | 69° |
| 2026-05-08 13:18 | 49.95346 | 8.22738 | 4041 ft | 178 kts | 69° |
| 2026-05-08 13:18 | 49.95783 | 8.24535 | 4018 ft | 178 kts | 69° |
| 2026-05-08 13:18 | 49.96221 | 8.26339 | 3940 ft | 179 kts | 69° |
| 2026-05-08 13:19 | 49.96659 | 8.28145 | 3750 ft | 178 kts | 69° |
| 2026-05-08 13:19 | 49.97095 | 8.29942 | 3530 ft | 177 kts | 69° |
| 2026-05-08 13:19 | 49.97528 | 8.31731 | 3299 ft | 176 kts | 69° |
| 2026-05-08 13:19 | 49.97959 | 8.33511 | 3059 ft | 176 kts | 69° |
| 2026-05-08 13:20 | 49.98384 | 8.35268 | 2823 ft | 175 kts | 69° |
| 2026-05-08 13:20 | 49.98814 | 8.37049 | 2577 ft | 174 kts | 69° |
| 2026-05-08 13:20 | 49.99238 | 8.38805 | 2354 ft | 174 kts | 69° |
| 2026-05-08 13:20 | 49.99662 | 8.40561 | 2115 ft | 173 kts | 69° |
| 2026-05-08 13:21 | 50.00083 | 8.42307 | 1888 ft | 172 kts | 69° |
| 2026-05-08 13:21 | 50.00492 | 8.44006 | 1655 ft | 165 kts | 69° |
| 2026-05-08 13:21 | 50.00878 | 8.45610 | 1442 ft | 150 kts | 69° |
| 2026-05-08 13:21 | 50.01226 | 8.47061 | 1229 ft | 136 kts | 69° |
| 2026-05-08 13:22 | 50.01549 | 8.48401 | 1043 ft | 131 kts | 69° |
| 2026-05-08 13:22 | 50.01863 | 8.49701 | 871 ft | 128 kts | 69° |
| 2026-05-08 13:22 | 50.02166 | 8.50968 | 725 ft | 125 kts | 68° |
| 2026-05-08 13:22 | 50.02473 | 8.52242 | 565 ft | 125 kts | 68° |
| 2026-05-08 13:23 | 50.02778 | 8.53511 | 380 ft | 124 kts | 69° |
| 2026-05-08 13:23 | 50.03061 | 8.54693 | 335 ft | 99 kts | 70° |
| 2026-05-08 13:23 | 50.03242 | 8.55449 | 347 ft | 53 kts | 69° |
| 2026-05-08 13:23 | 50.03378 | 8.55780 | 348 ft | 33 kts | 41° |
| 2026-05-08 13:24 | 50.03524 | 8.55972 | 352 ft | 25 kts | 39° |
| 2026-05-08 13:24 | 50.03644 | 8.56140 | 355 ft | 22 kts | 54° |
| 2026-05-08 13:24 | 50.03704 | 8.56360 | 354 ft | 22 kts | 69° |
| 2026-05-08 13:24 | 50.03760 | 8.56587 | 359 ft | 22 kts | 69° |
| 2026-05-08 13:25 | 50.03813 | 8.56814 | 359 ft | 22 kts | 70° |
| 2026-05-08 13:25 | 50.03867 | 8.57040 | 361 ft | 22 kts | 69° |
| 2026-05-08 13:25 | 50.03918 | 8.57249 | 362 ft | 20 kts | 69° |
| 2026-05-08 13:25 | 50.03965 | 8.57444 | 366 ft | 19 kts | 70° |
| 2026-05-08 13:26 | 50.04012 | 8.57636 | 368 ft | 19 kts | 69° |
| 2026-05-08 13:26 | 50.04064 | 8.57815 | 368 ft | 16 kts | 36° |
| 2026-05-08 13:26 | 50.04168 | 8.57782 | 364 ft | 17 kts | 338° |
| 2026-05-08 13:26 | 50.04288 | 8.57711 | 364 ft | 19 kts | 340° |
| 2026-05-08 13:27 | 50.04412 | 8.57637 | 366 ft | 18 kts | 333° |
| 2026-05-08 13:27 | 50.04531 | 8.57534 | 364 ft | 20 kts | 335° |
| 2026-05-08 13:27 | 50.04624 | 8.57546 | 359 ft | 14 kts | 49° |
| 2026-05-08 13:27 | 50.04691 | 8.57608 | 356 ft | 8 kts | 24° |
| 2026-05-08 13:28 | 50.04711 | 8.57622 | 358 ft | 3 kts | 25° |
| 2026-05-08 13:28 | 50.04717 | 8.57627 | 359 ft | 1 kts | 25° |